Gaz Palmyra — 3FCO4 — position and weather

sailwx.info

Track history (hours):
 
Tides and Currents Weather Stations Pressure Air Temp Water Temp Dewpoint Dewpoint Depression Visibility Wind Speed Wind Dir Waves Ship Positions

Gaz Palmyra

Last reported at 2015-Aug-03 22:32 UTC. Time now 2015-Aug-03 23:19 UTC.
Position N 36°46' E 003°07'.

Length 137 m; draft 8.3 m.

Type: Ship (hazmat cat C). MMSI: 353247000.

Date/timePositionNaut miles runAvg speedWind from/ knotsBaromVisibWave heightAir tempDewpointWater temp
2015-Aug-03 22:32N 36°46' E 003°07'0 0.0
2015-Aug-03 21:29N 36°46' E 003°07'0 0.0
2015-Aug-03 20:32N 36°46' E 003°07'0 0.0
2015-Aug-03 19:17N 36°46' E 003°07'0 0.0
2015-Aug-03 18:29N 36°46' E 003°07'0 0.0
2015-Aug-03 17:29N 36°46' E 003°07'0 0.0
2015-Aug-03 16:32N 36°46' E 003°07'0 0.0
2015-Aug-03 15:32N 36°46' E 003°07'0 0.0
2015-Aug-03 14:20N 36°46' E 003°07'0 0.0
2015-Aug-03 13:32N 36°46' E 003°07'0 0.0
2015-Aug-03 12:32N 36°46' E 003°07'0 0.0
2015-Aug-03 11:32N 36°46' E 003°07'0 0.0
2015-Aug-03 10:29N 36°46' E 003°07'0 0.0
2015-Aug-03 09:32N 36°46' E 003°07'0 0.0
2015-Aug-03 08:32N 36°46' E 003°07'0 0.1
2015-Aug-03 05:33N 36°46' E 003°07'6 6.0
2015-Aug-03 04:33N 36°51' E 003°03'1410.6
2015-Aug-03 03:13N 36°52' E 002°45'3011.0
2015-Aug-03 00:29N 36°50' E 002°07'3 2.6
2015-Aug-02 23:30N 36°48' E 002°05'16 8.1
2015-Aug-02 21:28N 36°48' E 001°44'2410.4
2015-Aug-02 19:08N 36°46' E 001°14'711.2
2015-Aug-02 18:33N 36°45' E 001°06'80 1.7
2015-Jul-31 18:10N 35°53' W 000°10'2 1.3
2015-Jul-31 16:18N 35°55' W 000°11'3 0.6
2015-Jul-31 11:18N 35°58' W 000°12'0 0.5
2015-Jul-31 10:33N 35°58' W 000°12'7 1.6
2015-Jul-31 06:27N 36°03' W 000°06'9310.3
2015-Jul-30 21:26N 36°48' E 001°35'  
Track history (hours):
 
Tides and Currents Weather Stations Pressure Air Temp Water Temp Dewpoint Dewpoint Depression Visibility Wind Speed Wind Dir Waves Ship Positions

Gaz Palmyra

Last reported at 2015-Aug-03 22:32 UTC. Time now 2015-Aug-03 23:19 UTC.
Position N 36°46' E 003°07'.

Length 137 m; draft 8.3 m.

Type: Ship (hazmat cat C). MMSI: 353247000.

Date/timePositionNaut miles runAvg speedWind from/ knotsBaromVisibWave heightAir tempDewpointWater temp
2015-Aug-03 22:32N 36°46' E 003°07'0 0.0
2015-Aug-03 21:29N 36°46' E 003°07'0 0.0
2015-Aug-03 20:32N 36°46' E 003°07'0 0.0
2015-Aug-03 19:17N 36°46' E 003°07'0 0.0
2015-Aug-03 18:29N 36°46' E 003°07'0 0.0
2015-Aug-03 17:29N 36°46' E 003°07'0 0.0
2015-Aug-03 16:32N 36°46' E 003°07'0 0.0
2015-Aug-03 15:32N 36°46' E 003°07'0 0.0
2015-Aug-03 14:20N 36°46' E 003°07'0 0.0
2015-Aug-03 13:32N 36°46' E 003°07'0 0.0
2015-Aug-03 12:32N 36°46' E 003°07'0 0.0
2015-Aug-03 11:32N 36°46' E 003°07'0 0.0
2015-Aug-03 10:29N 36°46' E 003°07'0 0.0
2015-Aug-03 09:32N 36°46' E 003°07'0 0.0
2015-Aug-03 08:32N 36°46' E 003°07'0 0.1
2015-Aug-03 05:33N 36°46' E 003°07'6 6.0
2015-Aug-03 04:33N 36°51' E 003°03'1410.6
2015-Aug-03 03:13N 36°52' E 002°45'3011.0
2015-Aug-03 00:29N 36°50' E 002°07'3 2.6
2015-Aug-02 23:30N 36°48' E 002°05'16 8.1
2015-Aug-02 21:28N 36°48' E 001°44'2410.4
2015-Aug-02 19:08N 36°46' E 001°14'711.2
2015-Aug-02 18:33N 36°45' E 001°06'80 1.7
2015-Jul-31 18:10N 35°53' W 000°10'2 1.3
2015-Jul-31 16:18N 35°55' W 000°11'3 0.6
2015-Jul-31 11:18N 35°58' W 000°12'0 0.5
2015-Jul-31 10:33N 35°58' W 000°12'7 1.6
2015-Jul-31 06:27N 36°03' W 000°06'9310.3
2015-Jul-30 21:26N 36°48' E 001°35'  

Dump ship's entire track history